This is the latest recevied weather packets stored in our database for station/object K0NV. If no packets are shown the sender has not sent any weather packets the latest 1 day(s).
| Time | Temp. | Humidity | Pressure | Rain* | Wind** | Luminosity | Snow |
|---|---|---|---|---|---|---|---|
| 1778007302 | 10.56° C | 92% | 1009.6 hPa | 0 mm | 3.58 m/s, 16° | 104 W/m² | - |
| 1778006998 | 11.11° C | 90% | 1009.5 hPa | 0 mm | 2.68 m/s, 48° | 98 W/m² | - |
| 1778006695 | 11.11° C | 89% | 1009.5 hPa | 0 mm | 0.89 m/s, 38° | 104 W/m² | - |
| 1778006391 | 11.11° C | 89% | 1009.7 hPa | 0 mm | 0.45 m/s, 55° | 78 W/m² | - |
| 1778006089 | 11.67° C | 88% | 1009.5 hPa | 0 mm | 2.68 m/s, 19° | 66 W/m² | - |
| 1778005785 | 11.67° C | 88% | 1009.7 hPa | 0 mm | 2.24 m/s, 328° | 85 W/m² | - |
| 1778005482 | 11.67° C | 88% | 1009.8 hPa | 0 mm | 0 m/s | 55 W/m² | - |
| 1778005178 | 11.67° C | 88% | 1009.4 hPa | 0 mm | 2.68 m/s, 46° | 65 W/m² | - |
| 1778004876 | 11.67° C | 88% | 1009.7 hPa | 0 mm | 0 m/s | 67 W/m² | - |
| 1778004573 | 11.67° C | 87% | 1009.4 hPa | 0 mm | 0.45 m/s, 4° | 87 W/m² | - |
| 1778004269 | 11.67° C | 88% | 1009.2 hPa | 0 mm | 0 m/s | 101 W/m² | - |
| 1778003966 | 11.67° C | 88% | 1009.2 hPa | 0 mm | 0.45 m/s, 65° | 94 W/m² | - |
| 1778003662 | 11.67° C | 87% | 1009.5 hPa | 0 mm | 0.45 m/s, 10° | 79 W/m² | - |
| 1778003358 | 11.67° C | 87% | 1009.4 hPa | 0 mm | 0 m/s | 114 W/m² | - |
| 1778003056 | 12.22° C | 87% | 1009.5 hPa | 0 mm | 0 m/s | 79 W/m² | - |
| 1778002752 | 12.22° C | 86% | 1009.1 hPa | 0 mm | 0 m/s | 134 W/m² | - |
| 1778002448 | 12.22° C | 86% | 1009.4 hPa | 0 mm | 0 m/s | 88 W/m² | - |
| 1778002145 | 12.78° C | 86% | 1009 hPa | 0 mm | 0 m/s | 105 W/m² | - |
| 1778001843 | 12.78° C | 86% | 1009.1 hPa | 0 mm | 0.89 m/s, 37° | 158 W/m² | - |
| 1778001543 | 12.22° C | 87% | 1009.1 hPa | 0 mm | 2.24 m/s, 25° | 225 W/m² | - |
| 1778001240 | 12.22° C | 87% | 1009.4 hPa | 0 mm | 0 m/s | 151 W/m² | - |
| 1778000936 | 12.78° C | 86% | 1009.2 hPa | 0 mm | 0.89 m/s, 78° | 155 W/m² | - |
| 1778000634 | 12.78° C | 86% | 1009.2 hPa | 0 mm | 2.68 m/s, 26° | 288 W/m² | - |
| 1778000329 | 12.78° C | 87% | 1009.4 hPa | 0 mm | 0 m/s | 284 W/m² | - |
| 1778000024 | 12.78° C | 87% | 1009.2 hPa | 0 mm | 0.45 m/s, 76° | 171 W/m² | - |
* Rain latest hour (hover to see other rain measurements)
** Current wind speed in m/s (hover to see current wind gust speed)